Time;durP1;ratioP1;P1;durP2;ratioP2;P2;SDS_P1;SDS_P2;PMS_P1;PMS_P2;Temp;Humidity;BMP_temperature;BMP_pressure;BME280_temperature;BME280_humidity;BME280_pressure;Samples;Min_cycle;Max_cycle;Signal;HPM_P1;HPM_P2
2022/08/03 00:00:54;;;;;;;;;3.75;3.25;;;;;26.97;47.71;101147.44;5019827;28;45370;-66
2022/08/03 00:03:19;;;;;;;;;5.25;4.25;;;;;26.96;47.42;101147.59;5019828;28;45329;-66
2022/08/03 00:05:45;;;;;;;;;6.00;6.00;;;;;26.96;47.80;101155.81;5020043;28;45545;-66
2022/08/03 00:08:10;;;;;;;;;4.25;4.25;;;;;26.93;47.59;101153.34;5019940;28;45347;-66
2022/08/03 00:10:36;;;;;;;;;4.00;4.00;;;;;26.90;47.67;101153.66;5019644;28;45248;-66
2022/08/03 00:13:02;;;;;;;;;5.00;5.00;;;;;26.91;47.86;101161.72;5019756;28;45323;-66
2022/08/03 00:15:27;;;;;;;;;3.00;3.00;;;;;26.93;48.02;101154.22;5019658;28;45262;-66
2022/08/03 00:17:52;;;;;;;;;5.00;5.00;;;;;26.94;48.16;101158.69;5020357;28;50799;-66
2022/08/03 00:20:18;;;;;;;;;3.75;3.75;;;;;26.95;48.13;101157.69;5023194;28;45156;-66
2022/08/03 00:22:43;;;;;;;;;4.75;3.25;;;;;26.94;47.85;101158.69;5021242;28;45904;-66
2022/08/03 00:25:08;;;;;;;;;5.25;5.25;;;;;26.96;48.04;101164.03;5022784;28;52478;-66
2022/08/03 00:27:34;;;;;;;;;3.75;3.50;;;;;26.94;48.10;101166.91;5022804;28;48900;-66
2022/08/03 00:29:59;;;;;;;;;6.00;5.25;;;;;26.90;47.99;101157.25;5023027;28;45236;-66
2022/08/03 00:32:24;;;;;;;;;6.00;4.00;;;;;26.91;48.47;101156.22;5023086;28;45498;-66
2022/08/03 00:34:50;;;;;;;;;5.50;5.50;;;;;26.91;48.13;101161.72;5023086;28;45278;-66
2022/08/03 00:37:15;;;;;;;;;5.50;2.50;;;;;26.88;47.90;101159.28;5022551;28;52843;-66
2022/08/03 00:39:42;;;;;;;;;2.25;2.00;;;;;26.84;47.79;101165.19;5022941;28;45394;-66
2022/08/03 00:42:07;;;;;;;;;3.00;3.00;;;;;26.76;47.94;101163.16;5022740;28;45332;-66
2022/08/03 00:44:39;;;;;;;;;4.00;4.00;;;;;26.72;47.88;101159.88;5022959;28;45525;-66
2022/08/03 00:47:05;;;;;;;;;3.00;3.00;;;;;26.67;47.82;101156.69;5022692;28;46440;-66
2022/08/03 00:49:30;;;;;;;;;4.00;3.00;;;;;26.68;47.88;101160.28;5022909;28;45390;-66
2022/08/03 00:51:56;;;;;;;;;5.75;4.25;;;;;26.63;47.63;101160.75;5021728;28;45343;-66
2022/08/03 00:54:23;;;;;;;;;3.50;3.50;;;;;26.64;47.41;101162.47;5022531;28;45361;-66
2022/08/03 00:56:49;;;;;;;;;4.00;4.00;;;;;26.61;47.55;101152.66;5020943;28;47441;-66
2022/08/03 00:59:15;;;;;;;;;3.00;3.00;;;;;26.60;48.13;101153.66;5022781;28;45408;-66
2022/08/03 01:01:40;;;;;;;;;3.75;2.00;;;;;26.61;47.73;101149.03;5022666;28;45351;-66
2022/08/03 01:04:05;;;;;;;;;2.00;2.00;;;;;26.58;47.43;101147.44;5022428;28;49888;-66
2022/08/03 01:06:40;;;;;;;;;3.50;3.50;;;;;26.58;47.85;101144.72;5022393;28;45233;-66
2022/08/03 01:09:19;;;;;;;;;2.75;2.75;;;;;26.56;47.66;101148.59;5022988;28;45467;-66
2022/08/03 01:11:57;;;;;;;;;3.00;3.00;;;;;26.51;47.76;101149.03;5022083;28;45237;-66
2022/08/03 01:15:01;;;;;;;;;3.00;3.00;;;;;26.45;47.92;101146.88;5022450;28;45434;-66
2022/08/03 01:17:45;;;;;;;;;3.75;3.25;;;;;26.41;48.65;101138.09;4988221;28;45514;-66
2022/08/03 01:20:13;;;;;;;;;3.75;3.75;;;;;26.37;47.99;101128.41;5022340;28;45444;-66
2022/08/03 01:22:58;;;;;;;;;2.75;2.75;;;;;26.37;47.70;101127.56;5018921;28;45278;-66
2022/08/03 01:25:39;;;;;;;;;4.00;4.00;;;;;26.36;48.12;101134.03;5022036;28;45468;-66
2022/08/03 01:28:41;;;;;;;;;2.25;2.25;;;;;26.36;48.01;101134.03;5008506;28;46441;-66
2022/08/03 01:31:10;;;;;;;;;3.75;3.00;;;;;26.32;48.02;101127.13;5021194;28;45436;-66
2022/08/03 01:33:42;;;;;;;;;2.00;2.00;;;;;26.29;47.75;101128.28;5022260;28;45194;-66
2022/08/03 01:36:15;;;;;;;;;2.75;2.00;;;;;26.22;48.35;101129.84;5022059;28;45525;-66
2022/08/03 01:38:45;;;;;;;;;3.50;2.50;;;;;26.22;48.44;101121.66;5021890;28;46070;-66
2022/08/03 01:41:16;;;;;;;;;4.75;3.00;;;;;26.18;48.07;101129.28;5021932;28;45324;-66
2022/08/03 01:43:44;;;;;;;;;3.00;3.00;;;;;26.17;48.31;101115.75;5021793;28;45246;-66
2022/08/03 01:46:10;;;;;;;;;2.00;2.00;;;;;26.16;47.86;101119.47;5021940;28;45224;-66
2022/08/03 01:48:38;;;;;;;;;3.00;2.00;;;;;26.15;48.51;101125.97;5021736;28;46398;-66
2022/08/03 01:51:06;;;;;;;;;3.00;3.00;;;;;26.15;48.73;101124.09;5020400;28;45490;-66
2022/08/03 01:53:33;;;;;;;;;3.25;1.75;;;;;26.13;48.04;101126.13;5021612;28;45388;-66
2022/08/03 01:56:01;;;;;;;;;2.75;2.75;;;;;26.09;48.19;101116.44;5021709;28;45676;-66
2022/08/03 01:58:28;;;;;;;;;2.50;2.50;;;;;26.05;48.26;101117.75;5021556;28;46234;-66
2022/08/03 02:00:59;;;;;;;;;2.00;2.00;;;;;25.99;48.15;101121.03;5021806;28;45399;-66
2022/08/03 02:03:27;;;;;;;;;2.00;0.75;;;;;25.98;48.27;101119.31;5021495;28;45317;-66
2022/08/03 02:05:55;;;;;;;;;2.50;2.50;;;;;25.96;48.03;101111.25;5021740;28;45459;-66
2022/08/03 02:08:24;;;;;;;;;1.25;1.25;;;;;25.90;49.03;101111.78;5021370;28;45252;-66
2022/08/03 02:10:51;;;;;;;;;3.00;2.00;;;;;25.88;48.22;101111.06;5021566;28;45310;-66
2022/08/03 02:13:19;;;;;;;;;1.75;1.75;;;;;25.81;49.02;101105.28;5021595;28;45308;-66
2022/08/03 02:15:46;;;;;;;;;2.75;2.75;;;;;25.80;48.42;101105.44;5021465;28;45371;-66
2022/08/03 02:18:13;;;;;;;;;2.75;2.75;;;;;25.76;48.38;101104.84;5020707;28;46088;-66
2022/08/03 02:20:41;;;;;;;;;4.25;3.00;;;;;25.76;48.31;101101.22;5021339;28;45386;-66
2022/08/03 02:23:08;;;;;;;;;1.25;1.25;;;;;25.72;48.61;101105.25;5036420;28;45406;-66
2022/08/03 02:25:40;;;;;;;;;1.75;1.75;;;;;25.68;48.79;101091.88;5021083;28;45327;-66
2022/08/03 02:28:14;;;;;;;;;2.00;2.00;;;;;25.66;48.77;101095.72;5008433;28;45509;-66
2022/08/03 02:30:44;;;;;;;;;1.00;1.00;;;;;25.64;48.44;101092.28;5021233;28;45361;-66
2022/08/03 02:33:17;;;;;;;;;2.25;1.25;;;;;25.63;49.05;101096.88;5021395;28;45431;-66
2022/08/03 02:35:44;;;;;;;;;1.00;1.00;;;;;25.61;48.58;101092.56;5021036;28;45730;-66
2022/08/03 02:38:12;;;;;;;;;1.00;0.75;;;;;25.59;49.29;101092.69;5021250;28;45318;-66
2022/08/03 02:40:39;;;;;;;;;3.00;2.00;;;;;25.55;48.80;101093.13;5020723;28;45360;-66
2022/08/03 02:43:09;;;;;;;;;3.25;2.00;;;;;25.51;49.22;101087.94;5021164;28;45279;-66
2022/08/03 02:45:41;;;;;;;;;2.00;2.00;;;;;25.50;49.20;101094.38;5020859;28;45397;-66
2022/08/03 02:48:08;;;;;;;;;2.50;1.00;;;;;25.49;49.12;101089.06;5021208;28;45360;-66
2022/08/03 02:50:34;;;;;;;;;1.25;1.25;;;;;25.48;49.35;101093.69;5019668;28;45548;-66
2022/08/03 02:53:01;;;;;;;;;2.00;2.00;;;;;25.49;49.42;101095.41;5020847;28;45407;-66
2022/08/03 02:55:28;;;;;;;;;2.25;1.25;;;;;25.49;49.37;101089.06;5020565;28;45253;-66
2022/08/03 02:57:55;;;;;;;;;1.00;1.00;;;;;25.48;49.38;101090.09;5020804;28;45403;-66
2022/08/03 03:00:22;;;;;;;;;2.00;1.25;;;;;25.43;48.51;101093.22;5020561;28;45323;-66
2022/08/03 03:02:48;;;;;;;;;1.00;1.00;;;;;25.38;49.13;101076.38;5020849;28;45303;-66
2022/08/03 03:05:14;;;;;;;;;2.50;1.25;;;;;25.39;48.69;101077.22;5020522;28;45249;-66
2022/08/03 03:07:42;;;;;;;;;1.00;0.75;;;;;25.41;49.56;101080.69;5020817;28;45458;-66
2022/08/03 03:10:08;;;;;;;;;2.00;1.00;;;;;25.40;49.16;101076.25;5020214;28;45642;-66
2022/08/03 03:12:36;;;;;;;;;1.50;1.00;;;;;25.42;49.50;101077.81;5020758;28;45350;-66
2022/08/03 03:15:05;;;;;;;;;1.75;1.00;;;;;25.40;48.83;101076.25;5020356;28;45471;-66
2022/08/03 03:17:33;;;;;;;;;1.00;0.25;;;;;25.38;48.82;101079.13;5020544;28;47181;-66
2022/08/03 03:19:59;;;;;;;;;0.75;0.75;;;;;25.38;49.44;101087.31;5020543;28;45217;-66
2022/08/03 03:22:26;;;;;;;;;0.00;0.00;;;;;25.32;49.04;101074.19;5019427;28;45335;-66
2022/08/03 03:24:53;;;;;;;;;0.50;0.50;;;;;25.36;49.11;101070.19;5020380;28;45510;-66
2022/08/03 03:27:20;;;;;;;;;1.00;1.00;;;;;25.35;49.28;101073.91;5019979;28;46116;-66
2022/08/03 03:29:46;;;;;;;;;2.00;0.25;;;;;25.30;48.88;101068.00;5020591;28;45357;-65
2022/08/03 03:32:11;;;;;;;;;1.25;0.25;;;;;25.29;49.29;101075.34;5020322;28;45225;-66
2022/08/03 03:34:36;;;;;;;;;1.25;1.00;;;;;25.29;49.44;101078.09;5020532;28;45154;-66
2022/08/03 03:37:02;;;;;;;;;0.25;0.25;;;;;25.28;49.72;101075.47;5020113;28;46033;-66
2022/08/03 03:39:27;;;;;;;;;1.00;1.00;;;;;25.23;49.13;101069.53;5020314;28;45403;-66
2022/08/03 03:41:53;;;;;;;;;3.00;1.50;;;;;25.21;49.74;101068.78;5020069;28;45367;-66
2022/08/03 03:44:19;;;;;;;;;1.00;1.00;;;;;25.22;49.79;101076.00;5020055;28;45221;-66
2022/08/03 03:46:44;;;;;;;;;1.00;1.00;;;;;25.20;49.30;101069.81;5020143;28;45261;-66
2022/08/03 03:49:10;;;;;;;;;1.25;1.25;;;;;25.22;49.35;101076.84;5020083;28;45224;-66
2022/08/03 03:51:35;;;;;;;;;0.75;0.75;;;;;25.21;49.22;101063.31;5017674;28;45662;-66
2022/08/03 03:54:04;;;;;;;;;1.00;1.00;;;;;25.19;49.57;101071.66;5018328;28;45576;-66
2022/08/03 03:56:30;;;;;;;;;1.75;1.00;;;;;25.15;49.38;101070.22;5019474;28;46272;-66
2022/08/03 03:58:55;;;;;;;;;1.75;1.75;;;;;25.14;49.26;101068.47;5019929;28;45265;-66
2022/08/03 04:01:21;;;;;;;;;1.00;1.00;;;;;25.13;49.50;101074.94;5020099;28;45277;-65
2022/08/03 04:03:46;;;;;;;;;2.00;2.00;;;;;25.14;50.23;101065.72;5019780;28;45313;-66
2022/08/03 04:11:47;;;;;;;;;1.00;1.00;;;;;25.10;49.47;101075.22;5019516;28;45324;-66
2022/08/03 04:14:23;;;;;;;;;2.00;2.00;;;;;25.08;50.27;101069.88;5019766;28;45307;-66
2022/08/03 04:16:52;;;;;;;;;0.50;0.50;;;;;25.07;49.90;101073.59;5019694;28;46203;-66
2022/08/03 04:19:32;;;;;;;;;2.00;2.00;;;;;25.06;49.91;101080.09;5019749;28;45286;-66
2022/08/03 04:22:04;;;;;;;;;0.75;0.75;;;;;25.06;50.37;101087.41;5019018;28;45732;-66
2022/08/03 04:24:35;;;;;;;;;4.00;2.00;;;;;25.05;49.74;101072.03;5018706;28;45378;-66
2022/08/03 04:27:06;;;;;;;;;1.00;1.00;;;;;25.05;50.03;101072.03;5019102;28;46305;-66
2022/08/03 04:29:34;;;;;;;;;2.00;2.00;;;;;25.03;49.76;101071.31;5018102;28;45233;-66
2022/08/03 04:31:59;;;;;;;;;1.75;1.75;;;;;25.02;49.79;101075.88;5019488;28;45330;-66
2022/08/03 04:34:26;;;;;;;;;2.25;2.25;;;;;25.00;50.32;101066.97;5019269;28;45269;-66
2022/08/03 04:36:58;;;;;;;;;2.50;2.50;;;;;25.00;49.84;101068.84;5019528;28;45206;-66
2022/08/03 04:39:26;;;;;;;;;0.25;0.25;;;;;25.04;50.38;101075.75;5019570;28;45369;-66
2022/08/03 04:41:58;;;;;;;;;2.00;1.75;;;;;25.03;50.22;101072.16;5019687;28;45265;-66
2022/08/03 04:44:25;;;;;;;;;2.00;2.00;;;;;25.03;49.67;101069.44;5019254;28;45519;-66
2022/08/03 04:46:51;;;;;;;;;1.00;1.00;;;;;24.99;50.54;101069.84;5019227;28;46168;-66
2022/08/03 04:49:19;;;;;;;;;3.00;2.00;;;;;25.00;50.55;101068.84;5019452;28;45264;-66
2022/08/03 04:51:45;;;;;;;;;1.25;1.25;;;;;25.00;50.89;101066.13;5019282;28;45309;-65
2022/08/03 04:54:14;;;;;;;;;1.25;1.25;;;;;24.99;49.93;101070.69;5019151;28;45187;-66
2022/08/03 04:56:40;;;;;;;;;0.75;0.75;;;;;24.99;50.13;101070.69;5017515;28;46110;-66
2022/08/03 04:59:06;;;;;;;;;1.00;1.00;;;;;24.98;50.42;101073.59;5018231;28;45569;-66
2022/08/03 05:01:32;;;;;;;;;1.00;1.00;;;;;25.02;50.94;101073.16;5018257;28;45257;-65
2022/08/03 05:03:57;;;;;;;;;2.00;2.00;;;;;24.98;50.97;101079.91;5019007;28;47485;-66
2022/08/03 05:06:23;;;;;;;;;1.25;1.25;;;;;24.98;50.29;101071.72;5021743;28;53853;-66
2022/08/03 05:08:49;;;;;;;;;2.75;1.75;;;;;24.98;50.74;101079.91;5022710;28;45329;-66
2022/08/03 05:11:15;;;;;;;;;3.00;1.00;;;;;24.95;50.34;101078.28;5022420;28;45249;-66
2022/08/03 05:13:41;;;;;;;;;2.50;2.00;;;;;24.95;50.46;101081.03;5022276;28;45486;-66
2022/08/03 05:16:06;;;;;;;;;0.25;0.25;;;;;24.91;50.85;101081.44;5022473;28;46181;-66
2022/08/03 05:18:32;;;;;;;;;2.25;2.00;;;;;24.88;51.06;101078.97;5022205;28;45367;-66
2022/08/03 05:20:57;;;;;;;;;1.50;1.50;;;;;24.89;51.06;101088.88;5022434;28;45328;-66
2022/08/03 05:23:23;;;;;;;;;2.00;2.00;;;;;24.88;51.12;101087.19;5022294;28;45565;-66
2022/08/03 05:25:48;;;;;;;;;3.00;1.25;;;;;24.87;51.38;101089.03;5020768;28;46249;-66
2022/08/03 05:28:14;;;;;;;;;2.75;2.00;;;;;24.86;51.36;101086.41;5010292;28;45343;-66
2022/08/03 05:30:39;;;;;;;;;2.25;2.25;;;;;24.85;50.85;101087.44;5022404;28;45335;-66
2022/08/03 05:33:04;;;;;;;;;1.25;0.75;;;;;24.85;51.10;101088.28;5022139;28;45481;-65
2022/08/03 05:35:31;;;;;;;;;2.00;2.00;;;;;24.83;51.33;101079.38;5022125;28;46297;-66
2022/08/03 05:37:56;;;;;;;;;2.00;1.50;;;;;24.85;51.62;101084.72;5022049;28;45405;-65
2022/08/03 05:40:21;;;;;;;;;1.75;1.00;;;;;24.85;51.56;101095.63;5021966;28;45285;-66
2022/08/03 05:42:47;;;;;;;;;2.00;2.00;;;;;24.87;51.22;101093.63;5021694;28;51715;-66
2022/08/03 05:45:17;;;;;;;;;2.00;2.00;;;;;24.83;51.65;101083.97;5021609;28;45652;-66
2022/08/03 05:47:44;;;;;;;;;1.50;1.00;;;;;24.90;51.64;101093.34;5022236;28;45328;-66
2022/08/03 05:50:10;;;;;;;;;4.00;3.00;;;;;24.92;51.44;101091.34;5017031;28;45321;-65
2022/08/03 05:52:36;;;;;;;;;4.00;2.50;;;;;24.91;51.88;101090.50;5018139;28;45402;-66
2022/08/03 05:55:04;;;;;;;;;2.25;1.75;;;;;24.93;51.62;101090.38;5021308;28;46137;-66
2022/08/03 05:57:29;;;;;;;;;4.00;3.00;;;;;24.89;51.54;101078.84;5021719;28;45176;-66
2022/08/03 05:59:54;;;;;;;;;3.25;2.75;;;;;24.98;51.54;101088.09;5021651;28;45543;-66
2022/08/03 06:02:20;;;;;;;;;4.00;3.25;;;;;24.99;52.10;101084.34;5021514;28;45546;-66
2022/08/03 06:04:45;;;;;;;;;3.00;3.00;;;;;25.03;51.44;101088.56;5021442;28;46145;-66
2022/08/03 06:07:11;;;;;;;;;2.25;2.25;;;;;25.04;51.79;101093.03;5021779;28;45492;-66
2022/08/03 06:09:36;;;;;;;;;3.75;3.00;;;;;25.07;51.92;101095.47;5036662;28;51382;-66
2022/08/03 06:12:01;;;;;;;;;4.75;2.75;;;;;25.09;51.69;101100.78;5020973;28;50969;-66
2022/08/03 06:14:27;;;;;;;;;1.75;1.75;;;;;25.11;51.23;101101.53;5021429;28;45908;-66
2022/08/03 06:16:52;;;;;;;;;3.00;3.00;;;;;25.08;51.65;101102.66;5020843;28;50829;-66
2022/08/03 06:19:17;;;;;;;;;3.00;2.00;;;;;25.07;52.26;101091.88;5021602;28;45340;-66
2022/08/03 06:21:43;;;;;;;;;3.50;3.50;;;;;25.10;51.31;101100.66;5018665;28;45633;-66
2022/08/03 06:24:08;;;;;;;;;3.00;3.00;;;;;25.11;51.76;101105.13;5020265;28;46951;-66
2022/08/03 06:26:34;;;;;;;;;4.00;4.00;;;;;25.12;51.33;101098.63;5021087;28;45376;-66
2022/08/03 06:28:59;;;;;;;;;3.75;3.75;;;;;25.14;51.64;101104.88;5020197;28;45417;-66
2022/08/03 06:31:28;;;;;;;;;3.00;3.00;;;;;25.12;52.21;101090.44;5021245;28;45374;-66
2022/08/03 06:33:53;;;;;;;;;3.50;3.50;;;;;25.19;52.45;101092.66;5020843;28;45352;-66
2022/08/03 06:36:18;;;;;;;;;2.25;2.25;;;;;25.22;51.66;101100.56;5021324;28;45384;-66
2022/08/03 06:38:44;;;;;;;;;5.75;5.75;;;;;25.21;51.43;101102.44;5021245;28;45363;-66
2022/08/03 06:41:09;;;;;;;;;4.25;3.25;;;;;25.22;51.79;101100.56;5020859;28;48871;-66
2022/08/03 06:43:36;;;;;;;;;4.00;3.00;;;;;25.23;51.52;101099.59;5020631;28;45197;-66
2022/08/03 06:46:03;;;;;;;;;5.25;3.75;;;;;25.26;52.02;101105.66;5021047;28;45487;-66
2022/08/03 06:48:28;;;;;;;;;3.75;3.75;;;;;25.27;51.48;101104.66;5020136;28;45361;-66
2022/08/03 06:50:53;;;;;;;;;4.25;4.00;;;;;25.28;51.27;101106.38;5017558;28;45436;-66
2022/08/03 06:53:19;;;;;;;;;3.25;3.25;;;;;25.30;51.84;101104.38;5020058;28;58611;-66
2022/08/03 06:55:44;;;;;;;;;4.00;4.00;;;;;25.31;52.15;101111.59;5020712;28;45454;-66
2022/08/03 06:58:09;;;;;;;;;4.00;4.00;;;;;25.31;51.78;101108.00;5020772;28;45299;-66
2022/08/03 07:00:34;;;;;;;;;5.00;5.00;;;;;25.32;51.44;101112.44;5020776;28;45371;-66
2022/08/03 07:03:00;;;;;;;;;4.50;3.25;;;;;25.33;51.46;101112.31;5020488;28;45989;-66
2022/08/03 07:05:25;;;;;;;;;6.00;5.00;;;;;25.39;52.13;101112.75;5020369;28;54797;-66
2022/08/03 07:07:54;;;;;;;;;3.75;3.75;;;;;25.40;52.16;101115.34;5020831;28;45450;-66
2022/08/03 07:10:19;;;;;;;;;5.50;4.00;;;;;25.42;50.96;101109.75;5019154;28;45225;-66
2022/08/03 07:12:46;;;;;;;;;5.50;3.75;;;;;25.43;51.73;101112.34;5020291;28;46163;-66
2022/08/03 07:15:11;;;;;;;;;5.75;5.00;;;;;25.46;52.06;101112.09;5020406;28;45520;-66
2022/08/03 07:17:37;;;;;;;;;4.00;4.00;;;;;25.46;51.53;101103.88;5020530;28;45328;-66
2022/08/03 07:20:06;;;;;;;;;4.50;4.50;;;;;25.49;51.53;101111.81;5020367;28;45404;-66
2022/08/03 07:22:33;;;;;;;;;4.00;3.25;;;;;25.51;51.22;101107.06;5020340;28;46588;-66
2022/08/03 07:24:58;;;;;;;;;3.50;3.50;;;;;25.54;51.32;101108.63;5020147;28;45445;-65
2022/08/03 07:27:25;;;;;;;;;4.50;3.75;;;;;25.54;51.30;101100.44;5019379;28;45286;-65
2022/08/03 07:29:51;;;;;;;;;5.00;3.00;;;;;25.63;51.32;101109.69;5020373;28;45166;-65
2022/08/03 07:32:16;;;;;;;;;3.25;3.25;;;;;25.67;51.36;101108.41;5020061;28;46370;-65
2022/08/03 07:34:41;;;;;;;;;4.50;4.50;;;;;25.70;50.83;101097.19;5020298;28;45319;-65
2022/08/03 07:37:07;;;;;;;;;6.00;4.00;;;;;25.75;50.25;101100.38;5020236;28;45340;-65
2022/08/03 07:39:32;;;;;;;;;3.50;3.50;;;;;25.80;50.82;101097.22;5020271;28;45534;-65
2022/08/03 07:41:57;;;;;;;;;5.00;4.00;;;;;25.86;50.82;101100.25;5018620;28;45419;-65
2022/08/03 07:44:22;;;;;;;;;7.00;4.75;;;;;25.93;51.26;101107.88;5018453;28;45419;-65
2022/08/03 07:46:49;;;;;;;;;4.75;4.75;;;;;25.97;50.37;101109.38;5020049;28;45249;-65
2022/08/03 07:49:15;;;;;;;;;5.50;4.25;;;;;25.99;50.89;101104.63;5020039;28;45538;-65
2022/08/03 07:51:40;;;;;;;;;2.75;2.75;;;;;26.06;50.20;101112.13;5019795;28;46247;-65
2022/08/03 07:54:06;;;;;;;;;4.50;4.25;;;;;26.11;49.98;101106.25;5019973;28;45363;-65
2022/08/03 07:56:32;;;;;;;;;6.00;4.75;;;;;26.18;50.69;101110.13;5019803;28;45317;-65
2022/08/03 07:58:58;;;;;;;;;4.75;3.00;;;;;26.25;49.92;101110.44;5020035;28;45226;-65
2022/08/03 08:01:24;;;;;;;;;4.00;4.00;;;;;26.31;49.87;101106.25;5019592;28;45284;-66
2022/08/03 08:03:50;;;;;;;;;4.00;4.00;;;;;26.37;49.60;101102.94;5019905;28;45297;-66
2022/08/03 08:06:16;;;;;;;;;6.00;3.75;;;;;26.43;49.32;101113.31;5019995;28;45179;-66
2022/08/03 08:08:42;;;;;;;;;5.75;4.25;;;;;26.50;50.00;101103.50;5019749;28;45475;-66
2022/08/03 08:11:07;;;;;;;;;5.50;5.00;;;;;26.58;49.73;101109.13;5019390;28;45383;-66
2022/08/03 08:13:34;;;;;;;;;1.50;1.50;;;;;26.65;48.95;101105.81;5018049;28;45771;-66
2022/08/03 08:15:59;;;;;;;;;4.00;4.00;;;;;26.71;48.84;101099.78;5019584;28;45339;-66
2022/08/03 08:18:24;;;;;;;;;4.75;4.75;;;;;26.77;48.24;101101.94;5019721;28;45325;-65
2022/08/03 08:20:50;;;;;;;;;4.75;3.75;;;;;26.84;48.53;101103.06;5019408;28;45554;-63
2022/08/03 08:23:22;;;;;;;;;4.00;4.00;;;;;26.91;48.29;101090.50;5018584;28;45329;-63
2022/08/03 08:25:49;;;;;;;;;6.00;4.25;;;;;26.98;47.97;101094.38;5019372;28;45405;-63
2022/08/03 08:28:17;;;;;;;;;2.75;2.75;;;;;27.04;47.80;101090.19;5019496;28;45391;-63
2022/08/03 08:30:42;;;;;;;;;3.75;3.00;;;;;27.10;48.03;101091.47;5017918;28;46745;-63
2022/08/03 08:33:08;;;;;;;;;6.50;5.25;;;;;27.16;47.65;101096.34;5017226;28;45162;-63
2022/08/03 08:35:33;;;;;;;;;5.75;5.75;;;;;27.21;47.42;101091.28;5019574;28;45223;-63
2022/08/03 08:37:59;;;;;;;;;5.00;5.00;;;;;27.27;47.03;101090.69;5017900;28;45657;-63
2022/08/03 08:40:26;;;;;;;;;3.75;3.75;;;;;27.33;47.04;101086.50;5022034;28;46381;-63
2022/08/03 08:42:51;;;;;;;;;3.25;3.25;;;;;27.39;47.40;101085.91;5022769;28;45395;-63
2022/08/03 08:45:18;;;;;;;;;5.75;5.00;;;;;27.45;46.70;101088.06;5022885;28;45382;-64
2022/08/03 08:47:46;;;;;;;;;3.50;2.25;;;;;27.50;46.67;101088.47;5021445;28;45368;-64
2022/08/03 08:50:12;;;;;;;;;4.25;4.25;;;;;27.54;46.75;101083.53;5022601;28;46112;-64
2022/08/03 08:52:43;;;;;;;;;5.50;5.00;;;;;27.60;47.19;101084.78;5022555;28;45157;-63
2022/08/03 08:55:12;;;;;;;;;7.75;6.00;;;;;27.66;46.45;101081.44;5021390;28;45464;-63
2022/08/03 08:57:45;;;;;;;;;2.00;2.00;;;;;27.76;46.46;101081.38;5022718;28;45459;-63
2022/08/03 09:00:13;;;;;;;;;3.75;3.75;;;;;27.83;45.67;101083.38;5022478;28;45265;-63
2022/08/03 09:02:43;;;;;;;;;5.00;5.00;;;;;27.91;45.30;101077.94;5022514;28;45403;-63
2022/08/03 09:05:12;;;;;;;;;4.75;4.75;;;;;28.00;44.78;101084.44;5021084;28;45376;-63
2022/08/03 09:07:39;;;;;;;;;3.50;2.50;;;;;28.07;45.51;101080.03;5014436;28;45270;-63
2022/08/03 09:10:07;;;;;;;;;4.00;3.75;;;;;28.14;44.85;101080.28;5022077;28;45250;-64
2022/08/03 09:12:38;;;;;;;;;3.75;3.75;;;;;28.22;44.56;101085.00;5022443;28;45386;-63
2022/08/03 09:15:23;;;;;;;;;3.50;3.50;;;;;28.26;45.07;101076.28;5022384;28;45224;-63
2022/08/03 09:17:49;;;;;;;;;2.75;2.75;;;;;28.30;44.39;101070.47;5021115;28;45453;-63
2022/08/03 09:20:15;;;;;;;;;2.50;2.25;;;;;28.37;43.93;101069.69;5020801;28;45348;-63
2022/08/03 09:23:09;;;;;;;;;4.50;4.50;;;;;28.42;43.26;101066.47;5022201;28;45233;-63
2022/08/03 09:25:37;;;;;;;;;3.00;3.00;;;;;28.43;44.20;101068.19;5013141;28;45314;-63
2022/08/03 09:28:12;;;;;;;;;2.00;2.00;;;;;28.50;43.67;101068.41;5020865;28;45311;-63
2022/08/03 09:30:41;;;;;;;;;4.75;4.00;;;;;28.54;43.39;101061.59;5022202;28;45322;-63
2022/08/03 09:33:08;;;;;;;;;2.75;2.75;;;;;28.60;42.52;101066.47;5022157;28;45401;-63
2022/08/03 09:35:40;;;;;;;;;4.00;3.00;;;;;28.69;43.54;101064.66;5022337;28;45309;-63
2022/08/03 09:38:16;;;;;;;;;4.00;3.75;;;;;28.77;43.45;101065.56;5022109;28;45479;-63
2022/08/03 09:40:43;;;;;;;;;3.25;3.25;;;;;28.85;43.15;101062.00;5021662;28;46353;-63
2022/08/03 09:43:09;;;;;;;;;3.25;2.25;;;;;28.91;41.37;101061.38;5021965;28;45359;-64
2022/08/03 09:45:36;;;;;;;;;3.00;3.00;;;;;28.94;41.48;101061.03;5022007;28;45325;-63
2022/08/03 09:48:25;;;;;;;;;3.00;3.00;;;;;29.02;42.47;101063.84;5022003;28;45582;-63
2022/08/03 09:50:53;;;;;;;;;4.00;4.00;;;;;29.09;41.84;101058.56;5020991;28;46134;-63
2022/08/03 09:53:19;;;;;;;;;3.00;2.00;;;;;29.12;41.06;101060.09;5020098;28;45455;-62
2022/08/03 09:55:56;;;;;;;;;2.25;2.25;;;;;29.11;41.37;101045.50;5021815;28;45308;-62
2022/08/03 09:58:26;;;;;;;;;4.50;4.00;;;;;29.16;41.06;101040.38;5021586;28;45221;-63
2022/08/03 10:01:03;;;;;;;;;3.50;3.00;;;;;29.22;40.84;101047.16;5021704;28;46212;-63
2022/08/03 10:03:30;;;;;;;;;4.00;4.00;;;;;29.25;41.73;101046.81;5021522;28;45431;-63
2022/08/03 10:05:57;;;;;;;;;1.25;1.25;;;;;29.32;40.81;101047.00;5021930;28;45274;-63
2022/08/03 10:08:23;;;;;;;;;4.25;3.00;;;;;29.35;41.05;101033.81;5019042;28;45514;-64
2022/08/03 10:10:53;;;;;;;;;1.00;0.25;;;;;29.43;39.88;101040.38;5021248;28;47169;-64
2022/08/03 10:13:20;;;;;;;;;2.25;2.25;;;;;29.44;41.01;101039.34;5021448;28;45407;-64
2022/08/03 10:15:46;;;;;;;;;1.00;1.00;;;;;29.49;40.69;101032.31;5020849;28;45285;-63
2022/08/03 10:18:12;;;;;;;;;1.00;1.00;;;;;29.54;39.72;101032.66;5021460;28;45414;-64
2022/08/03 10:21:00;;;;;;;;;2.25;2.25;;;;;29.57;40.55;101037.00;5021388;28;45459;-63
2022/08/03 10:23:26;;;;;;;;;2.75;2.50;;;;;29.62;40.31;101031.84;5021285;28;45222;-63
2022/08/03 10:25:57;;;;;;;;;3.75;3.75;;;;;29.68;40.43;101031.16;5021571;28;45261;-64
2022/08/03 10:28:23;;;;;;;;;2.00;2.00;;;;;29.72;39.50;101029.81;5021288;28;45285;-63
2022/08/03 10:30:51;;;;;;;;;2.00;2.00;;;;;29.74;39.87;101025.00;5021075;28;46332;-63
2022/08/03 10:33:20;;;;;;;;;2.50;2.50;;;;;29.79;39.63;101026.38;5021315;28;45316;-64
2022/08/03 10:35:51;;;;;;;;;4.50;2.50;;;;;29.81;39.27;101021.59;5018493;28;46025;-64
2022/08/03 10:38:21;;;;;;;;;2.00;2.00;;;;;29.83;39.74;101011.28;5019019;28;45234;-63
2022/08/03 10:40:52;;;;;;;;;2.75;1.00;;;;;29.89;39.51;101022.47;5020538;28;46141;-64
2022/08/03 10:43:21;;;;;;;;;2.75;2.00;;;;;29.93;39.10;101010.06;5020990;28;45217;-64
2022/08/03 10:45:47;;;;;;;;;2.50;2.50;;;;;29.95;39.11;101006.31;5022498;28;45347;-64
2022/08/03 10:48:14;;;;;;;;;1.50;1.50;;;;;29.97;39.64;101007.88;5020982;28;45390;-65
2022/08/03 10:50:42;;;;;;;;;2.00;1.00;;;;;30.02;38.83;101005.47;5020528;28;45439;-65
2022/08/03 10:53:07;;;;;;;;;1.25;1.00;;;;;30.04;38.89;100997.03;5020720;28;45265;-65
2022/08/03 10:58:37;;;;;;;;;0.25;0.25;;;;;30.13;38.47;101001.50;5020877;28;45342;-65
2022/08/03 11:01:07;;;;;;;;;1.75;1.00;;;;;30.15;37.78;101001.34;5020779;28;46172;-65
2022/08/03 11:03:33;;;;;;;;;1.50;1.50;;;;;30.21;37.45;100998.75;5019263;28;45376;-65
2022/08/03 11:06:23;;;;;;;;;1.25;1.25;;;;;30.24;37.68;100992.06;5020842;28;45319;-65
2022/08/03 11:09:08;;;;;;;;;1.50;1.00;;;;;30.26;38.31;100996.34;5019097;28;45372;-65
2022/08/03 11:11:34;;;;;;;;;2.00;1.25;;;;;30.30;38.42;100992.22;5019820;28;46504;-65
2022/08/03 11:14:03;;;;;;;;;2.25;1.00;;;;;30.32;38.50;100993.94;5020615;28;45223;-64
2022/08/03 11:16:33;;;;;;;;;2.00;1.00;;;;;30.34;38.29;100978.97;5020428;28;45479;-65
2022/08/03 11:19:00;;;;;;;;;3.75;2.25;;;;;30.38;37.91;100985.00;5020493;28;45365;-65
2022/08/03 11:21:51;;;;;;;;;2.00;2.00;;;;;30.37;37.94;100975.91;5020264;28;46177;-64
2022/08/03 11:24:52;;;;;;;;;2.00;2.00;;;;;30.38;37.46;100972.09;5018934;28;45313;-64
2022/08/03 11:27:19;;;;;;;;;1.00;1.00;;;;;30.37;37.46;100975.03;5020315;28;45344;-64
2022/08/03 11:30:04;;;;;;;;;4.00;3.25;;;;;30.38;37.38;100971.25;5020421;28;45379;-64
2022/08/03 11:32:36;;;;;;;;;1.25;1.25;;;;;30.43;37.59;100968.81;5019021;28;46436;-64
2022/08/03 11:35:14;;;;;;;;;1.00;1.00;;;;;30.54;37.84;100967.59;5018852;28;45531;-64
2022/08/03 11:38:07;;;;;;;;;2.00;1.00;;;;;30.65;36.76;100965.31;5020262;28;45331;-65